sensor_id;sensor_type;location;lat;lon;timestamp;pressure;altitude;pressure_sealevel;temperature;humidity
9249;BME280;4660;41.768;26.198;2023-06-10T00:02:09;100339.94;;;18.83;100.00
9249;BME280;4660;41.768;26.198;2023-06-10T00:04:35;100331.72;;;18.76;100.00
9249;BME280;4660;41.768;26.198;2023-06-10T00:07:03;100334.47;;;18.83;100.00
9249;BME280;4660;41.768;26.198;2023-06-10T00:09:29;100335.94;;;18.85;100.00
9249;BME280;4660;41.768;26.198;2023-06-10T00:11:54;100330.09;;;18.88;100.00
9249;BME280;4660;41.768;26.198;2023-06-10T00:14:20;100330.47;;;18.79;100.00
9249;BME280;4660;41.768;26.198;2023-06-10T00:16:45;100320.91;;;18.55;100.00
9249;BME280;4660;41.768;26.198;2023-06-10T00:19:11;100323.47;;;18.63;100.00
9249;BME280;4660;41.768;26.198;2023-06-10T00:21:39;100318.66;;;18.58;100.00
9249;BME280;4660;41.768;26.198;2023-06-10T00:24:07;100326.19;;;18.63;100.00
9249;BME280;4660;41.768;26.198;2023-06-10T00:26:40;100324.41;;;18.42;100.00
9249;BME280;4660;41.768;26.198;2023-06-10T00:29:07;100335.13;;;18.43;100.00
9249;BME280;4660;41.768;26.198;2023-06-10T00:31:37;100327.16;;;18.49;100.00
9249;BME280;4660;41.768;26.198;2023-06-10T00:34:03;100318.34;;;18.40;100.00
9249;BME280;4660;41.768;26.198;2023-06-10T00:36:29;100337.53;;;18.25;100.00
9249;BME280;4660;41.768;26.198;2023-06-10T00:38:55;100324.31;;;17.87;100.00
9249;BME280;4660;41.768;26.198;2023-06-10T00:41:20;100321.59;;;17.66;100.00
9249;BME280;4660;41.768;26.198;2023-06-10T00:43:46;100331.97;;;17.56;100.00
9249;BME280;4660;41.768;26.198;2023-06-10T00:46:12;100334.06;;;17.54;100.00
9249;BME280;4660;41.768;26.198;2023-06-10T00:48:40;100334.41;;;17.44;100.00
9249;BME280;4660;41.768;26.198;2023-06-10T00:51:07;100327.97;;;17.52;100.00
9249;BME280;4660;41.768;26.198;2023-06-10T00:53:36;100334.53;;;17.64;100.00
9249;BME280;4660;41.768;26.198;2023-06-10T00:56:03;100326.53;;;17.56;100.00
9249;BME280;4660;41.768;26.198;2023-06-10T00:58:28;100330.91;;;17.72;100.00
9249;BME280;4660;41.768;26.198;2023-06-10T01:00:55;100336.00;;;17.81;100.00
9249;BME280;4660;41.768;26.198;2023-06-10T01:03:20;100316.16;;;17.66;100.00
9249;BME280;4660;41.768;26.198;2023-06-10T01:05:53;100305.44;;;17.79;100.00
9249;BME280;4660;41.768;26.198;2023-06-10T01:11:01;100322.19;;;18.18;100.00
9249;BME280;4660;41.768;26.198;2023-06-10T01:13:30;100312.41;;;18.23;100.00
9249;BME280;4660;41.768;26.198;2023-06-10T01:15:58;100311.34;;;18.24;100.00
9249;BME280;4660;41.768;26.198;2023-06-10T01:18:30;100295.00;;;18.24;100.00
9249;BME280;4660;41.768;26.198;2023-06-10T01:20:56;100309.66;;;18.23;100.00
9249;BME280;4660;41.768;26.198;2023-06-10T01:23:21;100301.44;;;18.10;100.00
9249;BME280;4660;41.768;26.198;2023-06-10T01:26:06;100313.63;;;18.21;100.00
9249;BME280;4660;41.768;26.198;2023-06-10T01:31:31;100320.78;;;18.28;100.00
9249;BME280;4660;41.768;26.198;2023-06-10T01:34:00;100314.94;;;18.31;100.00
9249;BME280;4660;41.768;26.198;2023-06-10T01:36:28;100312.88;;;18.40;100.00
9249;BME280;4660;41.768;26.198;2023-06-10T01:38:55;100294.41;;;18.35;100.00
9249;BME280;4660;41.768;26.198;2023-06-10T01:41:21;100297.16;;;18.35;100.00
9249;BME280;4660;41.768;26.198;2023-06-10T01:43:47;100305.31;;;18.35;100.00
9249;BME280;4660;41.768;26.198;2023-06-10T01:46:14;100299.81;;;18.22;100.00
9249;BME280;4660;41.768;26.198;2023-06-10T01:48:41;100300.38;;;18.52;100.00
9249;BME280;4660;41.768;26.198;2023-06-10T01:51:07;100306.22;;;18.49;100.00
9249;BME280;4660;41.768;26.198;2023-06-10T01:53:32;100305.31;;;18.35;100.00
9249;BME280;4660;41.768;26.198;2023-06-10T01:55:58;100307.72;;;18.10;100.00
9249;BME280;4660;41.768;26.198;2023-06-10T01:58:23;100302.53;;;17.87;100.00
9249;BME280;4660;41.768;26.198;2023-06-10T02:00:49;100314.09;;;17.68;100.00
9249;BME280;4660;41.768;26.198;2023-06-10T02:03:14;100305.56;;;17.50;100.00
9249;BME280;4660;41.768;26.198;2023-06-10T02:05:40;100313.63;;;17.37;100.00
9249;BME280;4660;41.768;26.198;2023-06-10T02:08:06;100308.41;;;16.99;100.00
9249;BME280;4660;41.768;26.198;2023-06-10T02:10:31;100317.63;;;16.98;100.00
9249;BME280;4660;41.768;26.198;2023-06-10T02:12:57;100318.53;;;17.05;100.00
9249;BME280;4660;41.768;26.198;2023-06-10T02:15:22;100320.97;;;17.00;100.00
9249;BME280;4660;41.768;26.198;2023-06-10T02:17:48;100320.47;;;17.11;100.00
9249;BME280;4660;41.768;26.198;2023-06-10T02:20:14;100299.88;;;16.81;100.00
9249;BME280;4660;41.768;26.198;2023-06-10T02:22:40;100309.38;;;16.91;100.00
9249;BME280;4660;41.768;26.198;2023-06-10T02:25:05;100311.91;;;16.93;100.00
9249;BME280;4660;41.768;26.198;2023-06-10T02:27:31;100314.31;;;17.02;100.00
9249;BME280;4660;41.768;26.198;2023-06-10T02:29:58;100312.31;;;16.90;100.00
9249;BME280;4660;41.768;26.198;2023-06-10T02:32:23;100316.56;;;16.99;100.00
9249;BME280;4660;41.768;26.198;2023-06-10T02:34:49;100317.63;;;16.98;100.00
9249;BME280;4660;41.768;26.198;2023-06-10T02:37:15;100302.97;;;16.99;100.00
9249;BME280;4660;41.768;26.198;2023-06-10T02:39:41;100318.88;;;17.17;100.00
9249;BME280;4660;41.768;26.198;2023-06-10T02:42:07;100324.09;;;17.18;100.00
9249;BME280;4660;41.768;26.198;2023-06-10T02:44:32;100316.72;;;17.12;100.00
9249;BME280;4660;41.768;26.198;2023-06-10T02:46:58;100322.16;;;17.12;100.00
9249;BME280;4660;41.768;26.198;2023-06-10T02:49:24;100321.09;;;16.92;100.00
9249;BME280;4660;41.768;26.198;2023-06-10T02:51:50;100317.38;;;16.63;100.00
9249;BME280;4660;41.768;26.198;2023-06-10T02:54:19;100326.50;;;16.70;100.00
9249;BME280;4660;41.768;26.198;2023-06-10T02:56:45;100320.72;;;16.44;100.00
9249;BME280;4660;41.768;26.198;2023-06-10T02:59:11;100320.09;;;16.63;100.00
9249;BME280;4660;41.768;26.198;2023-06-10T03:01:36;100325.19;;;16.66;100.00
9249;BME280;4660;41.768;26.198;2023-06-10T03:04:04;100312.19;;;16.32;100.00
9249;BME280;4660;41.768;26.198;2023-06-10T03:06:30;100308.94;;;16.37;100.00
9249;BME280;4660;41.768;26.198;2023-06-10T03:08:55;100315.13;;;16.31;100.00
9249;BME280;4660;41.768;26.198;2023-06-10T03:11:21;100278.44;;;16.05;100.00
9249;BME280;4660;41.768;26.198;2023-06-10T03:13:46;100304.34;;;16.22;100.00
9249;BME280;4660;41.768;26.198;2023-06-10T03:16:12;100321.00;;;16.19;100.00
9249;BME280;4660;41.768;26.198;2023-06-10T03:18:38;100321.25;;;16.54;100.00
9249;BME280;4660;41.768;26.198;2023-06-10T03:21:03;100317.31;;;16.71;100.00
9249;BME280;4660;41.768;26.198;2023-06-10T03:23:29;100322.19;;;16.61;100.00
9249;BME280;4660;41.768;26.198;2023-06-10T03:25:55;100322.81;;;16.78;100.00
9249;BME280;4660;41.768;26.198;2023-06-10T03:28:21;100324.63;;;16.71;100.00
9249;BME280;4660;41.768;26.198;2023-06-10T03:30:47;100314.69;;;16.63;100.00
9249;BME280;4660;41.768;26.198;2023-06-10T03:33:13;100322.09;;;16.69;100.00
9249;BME280;4660;41.768;26.198;2023-06-10T03:35:39;100312.56;;;16.44;100.00
9249;BME280;4660;41.768;26.198;2023-06-10T03:38:05;100318.66;;;16.46;100.00
9249;BME280;4660;41.768;26.198;2023-06-10T03:40:31;100316.31;;;16.58;100.00
9249;BME280;4660;41.768;26.198;2023-06-10T03:42:57;100324.81;;;16.69;100.00
9249;BME280;4660;41.768;26.198;2023-06-10T03:45:23;100315.81;;;16.54;100.00
9249;BME280;4660;41.768;26.198;2023-06-10T03:47:49;100324.50;;;16.64;100.00
9249;BME280;4660;41.768;26.198;2023-06-10T03:50:15;100319.66;;;16.74;100.00
9249;BME280;4660;41.768;26.198;2023-06-10T03:52:41;100323.22;;;16.75;100.00
9249;BME280;4660;41.768;26.198;2023-06-10T03:55:07;100337.00;;;16.73;100.00
9249;BME280;4660;41.768;26.198;2023-06-10T03:57:33;100339.22;;;16.70;100.00
9249;BME280;4660;41.768;26.198;2023-06-10T03:59:58;100339.13;;;16.63;100.00
9249;BME280;4660;41.768;26.198;2023-06-10T04:02:24;100334.09;;;16.45;100.00
9249;BME280;4660;41.768;26.198;2023-06-10T04:04:50;100332.69;;;16.35;100.00
9249;BME280;4660;41.768;26.198;2023-06-10T04:07:16;100312.13;;;16.26;100.00
9249;BME280;4660;41.768;26.198;2023-06-10T04:09:44;100330.25;;;16.40;100.00
9249;BME280;4660;41.768;26.198;2023-06-10T04:12:09;100336.22;;;16.50;100.00
9249;BME280;4660;41.768;26.198;2023-06-10T04:14:36;100329.69;;;16.59;100.00
9249;BME280;4660;41.768;26.198;2023-06-10T04:17:04;100335.44;;;16.86;100.00
9249;BME280;4660;41.768;26.198;2023-06-10T04:19:32;100333.84;;;16.91;100.00
9249;BME280;4660;41.768;26.198;2023-06-10T04:21:58;100326.09;;;17.10;100.00
9249;BME280;4660;41.768;26.198;2023-06-10T04:24:23;100319.56;;;17.04;100.00
9249;BME280;4660;41.768;26.198;2023-06-10T04:26:49;100332.00;;;17.34;100.00
9249;BME280;4660;41.768;26.198;2023-06-10T04:29:14;100334.19;;;17.46;100.00
9249;BME280;4660;41.768;26.198;2023-06-10T04:31:40;100332.22;;;17.61;100.00
9249;BME280;4660;41.768;26.198;2023-06-10T04:34:06;100338.31;;;17.63;100.00
9249;BME280;4660;41.768;26.198;2023-06-10T04:36:33;100324.16;;;17.46;100.00
9249;BME280;4660;41.768;26.198;2023-06-10T04:38:58;100325.91;;;17.54;100.00
9249;BME280;4660;41.768;26.198;2023-06-10T04:41:24;100329.72;;;17.59;100.00
9249;BME280;4660;41.768;26.198;2023-06-10T04:43:51;100324.53;;;17.93;100.00
9249;BME280;4660;41.768;26.198;2023-06-10T04:46:17;100332.75;;;17.99;100.00
9249;BME280;4660;41.768;26.198;2023-06-10T04:48:42;100335.22;;;18.22;100.00
9249;BME280;4660;41.768;26.198;2023-06-10T04:51:08;100333.22;;;18.37;100.00
9249;BME280;4660;41.768;26.198;2023-06-10T04:53:33;100333.34;;;18.23;100.00
9249;BME280;4660;41.768;26.198;2023-06-10T04:55:59;100333.81;;;18.33;100.00
9249;BME280;4660;41.768;26.198;2023-06-10T04:58:24;100327.22;;;18.55;100.00
9249;BME280;4660;41.768;26.198;2023-06-10T05:00:50;100326.94;;;18.91;100.00
9249;BME280;4660;41.768;26.198;2023-06-10T05:03:15;100320.28;;;19.07;100.00
9249;BME280;4660;41.768;26.198;2023-06-10T05:05:41;100326.78;;;19.13;100.00
9249;BME280;4660;41.768;26.198;2023-06-10T05:08:06;100309.84;;;19.31;100.00
9249;BME280;4660;41.768;26.198;2023-06-10T05:10:32;100316.56;;;19.55;100.00
9249;BME280;4660;41.768;26.198;2023-06-10T05:12:59;100325.84;;;19.67;100.00
9249;BME280;4660;41.768;26.198;2023-06-10T05:15:25;100310.28;;;19.81;100.00
9249;BME280;4660;41.768;26.198;2023-06-10T05:17:50;100314.00;;;20.13;100.00
9249;BME280;4660;41.768;26.198;2023-06-10T05:20:17;100309.59;;;20.18;100.00
9249;BME280;4660;41.768;26.198;2023-06-10T05:22:43;100304.75;;;20.14;100.00
9249;BME280;4660;41.768;26.198;2023-06-10T05:25:09;100296.16;;;20.10;100.00
9249;BME280;4660;41.768;26.198;2023-06-10T05:27:35;100298.28;;;20.15;100.00
9249;BME280;4660;41.768;26.198;2023-06-10T05:30:02;100300.75;;;20.29;100.00
9249;BME280;4660;41.768;26.198;2023-06-10T05:32:29;100278.66;;;20.38;100.00
9249;BME280;4660;41.768;26.198;2023-06-10T05:34:54;100293.94;;;20.58;100.00
9249;BME280;4660;41.768;26.198;2023-06-10T05:37:20;100301.03;;;20.73;100.00
9249;BME280;4660;41.768;26.198;2023-06-10T05:39:45;100300.50;;;20.89;100.00
9249;BME280;4660;41.768;26.198;2023-06-10T05:42:11;100281.72;;;20.99;100.00
9249;BME280;4660;41.768;26.198;2023-06-10T05:44:36;100288.94;;;21.19;100.00
9249;BME280;4660;41.768;26.198;2023-06-10T05:47:02;100280.44;;;21.33;100.00
9249;BME280;4660;41.768;26.198;2023-06-10T05:49:28;100279.28;;;21.48;100.00
9249;BME280;4660;41.768;26.198;2023-06-10T05:51:53;100290.97;;;21.61;100.00
9249;BME280;4660;41.768;26.198;2023-06-10T05:54:21;100297.09;;;21.82;100.00
9249;BME280;4660;41.768;26.198;2023-06-10T05:56:46;100269.88;;;21.87;100.00
9249;BME280;4660;41.768;26.198;2023-06-10T05:59:12;100289.94;;;22.24;100.00
9249;BME280;4660;41.768;26.198;2023-06-10T06:01:38;100291.63;;;22.25;100.00
9249;BME280;4660;41.768;26.198;2023-06-10T06:04:03;100285.00;;;22.51;100.00
9249;BME280;4660;41.768;26.198;2023-06-10T06:06:29;100302.31;;;22.82;100.00
9249;BME280;4660;41.768;26.198;2023-06-10T06:08:54;100301.56;;;22.74;100.00
9249;BME280;4660;41.768;26.198;2023-06-10T06:11:20;100292.84;;;22.77;100.00
9249;BME280;4660;41.768;26.198;2023-06-10T06:13:45;100304.91;;;22.76;100.00
9249;BME280;4660;41.768;26.198;2023-06-10T06:16:12;100288.91;;;22.73;100.00
9249;BME280;4660;41.768;26.198;2023-06-10T06:18:39;100291.28;;;22.88;100.00
9249;BME280;4660;41.768;26.198;2023-06-10T06:21:04;100287.38;;;22.96;100.00
9249;BME280;4660;41.768;26.198;2023-06-10T06:23:29;100289.28;;;23.07;100.00
9249;BME280;4660;41.768;26.198;2023-06-10T06:25:55;100274.63;;;23.01;100.00
9249;BME280;4660;41.768;26.198;2023-06-10T06:28:21;100282.09;;;23.24;100.00
9249;BME280;4660;41.768;26.198;2023-06-10T06:30:47;100285.09;;;23.46;100.00
9249;BME280;4660;41.768;26.198;2023-06-10T06:33:13;100278.19;;;23.44;100.00
9249;BME280;4660;41.768;26.198;2023-06-10T06:35:39;100281.84;;;23.26;100.00
9249;BME280;4660;41.768;26.198;2023-06-10T06:38:05;100289.25;;;23.25;100.00
9249;BME280;4660;41.768;26.198;2023-06-10T06:40:31;100280.19;;;23.37;100.00
9249;BME280;4660;41.768;26.198;2023-06-10T06:42:56;100274.09;;;23.34;100.00
9249;BME280;4660;41.768;26.198;2023-06-10T06:45:22;100287.88;;;23.58;100.00
9249;BME280;4660;41.768;26.198;2023-06-10T06:47:47;100281.25;;;23.35;100.00
9249;BME280;4660;41.768;26.198;2023-06-10T06:50:13;100267.94;;;23.51;100.00
9249;BME280;4660;41.768;26.198;2023-06-10T06:52:39;100266.50;;;23.60;100.00
9249;BME280;4660;41.768;26.198;2023-06-10T06:55:05;100264.22;;;23.45;100.00
9249;BME280;4660;41.768;26.198;2023-06-10T06:57:30;100264.31;;;23.39;100.00
9249;BME280;4660;41.768;26.198;2023-06-10T06:59:56;100270.53;;;23.46;100.00
9249;BME280;4660;41.768;26.198;2023-06-10T07:02:22;100267.44;;;23.54;100.00
9249;BME280;4660;41.768;26.198;2023-06-10T07:04:47;100255.28;;;23.61;100.00
9249;BME280;4660;41.768;26.198;2023-06-10T07:07:15;100241.31;;;23.75;100.00
9249;BME280;4660;41.768;26.198;2023-06-10T07:09:41;100254.56;;;23.78;100.00
9249;BME280;4660;41.768;26.198;2023-06-10T07:12:07;100255.66;;;23.77;100.00
9249;BME280;4660;41.768;26.198;2023-06-10T07:14:33;100261.28;;;23.94;100.00
9249;BME280;4660;41.768;26.198;2023-06-10T07:16:58;100252.16;;;24.05;100.00
9249;BME280;4660;41.768;26.198;2023-06-10T07:19:24;100241.44;;;23.92;100.00
9249;BME280;4660;41.768;26.198;2023-06-10T07:21:50;100229.09;;;24.06;100.00
9249;BME280;4660;41.768;26.198;2023-06-10T07:24:15;100236.59;;;24.34;100.00
9249;BME280;4660;41.768;26.198;2023-06-10T07:26:41;100233.69;;;24.29;100.00
9249;BME280;4660;41.768;26.198;2023-06-10T07:29:07;100240.47;;;24.50;100.00
9249;BME280;4660;41.768;26.198;2023-06-10T07:31:32;100242.06;;;24.74;100.00
9249;BME280;4660;41.768;26.198;2023-06-10T07:33:58;100213.47;;;24.75;100.00
9249;BME280;4660;41.768;26.198;2023-06-10T07:36:24;100236.34;;;24.92;100.00
9249;BME280;4660;41.768;26.198;2023-06-10T07:38:53;100236.59;;;24.91;100.00
9249;BME280;4660;41.768;26.198;2023-06-10T07:41:18;100247.34;;;24.92;100.00
9249;BME280;4660;41.768;26.198;2023-06-10T07:43:44;100248.03;;;24.99;100.00
9249;BME280;4660;41.768;26.198;2023-06-10T07:46:10;100232.03;;;24.96;100.00
9249;BME280;4660;41.768;26.198;2023-06-10T07:48:36;100226.34;;;24.86;100.00
9249;BME280;4660;41.768;26.198;2023-06-10T07:51:02;100218.16;;;24.91;100.00
9249;BME280;4660;41.768;26.198;2023-06-10T07:53:27;100252.69;;;25.28;100.00
9249;BME280;4660;41.768;26.198;2023-06-10T07:55:53;100240.88;;;25.44;100.00
9249;BME280;4660;41.768;26.198;2023-06-10T07:58:20;100243.09;;;25.81;100.00
9249;BME280;4660;41.768;26.198;2023-06-10T08:00:47;100252.25;;;25.69;100.00
9249;BME280;4660;41.768;26.198;2023-06-10T08:03:13;100240.19;;;25.53;100.00
9249;BME280;4660;41.768;26.198;2023-06-10T08:05:39;100243.53;;;25.72;100.00
9249;BME280;4660;41.768;26.198;2023-06-10T08:08:05;100244.16;;;25.96;100.00
9249;BME280;4660;41.768;26.198;2023-06-10T08:10:30;100242.81;;;26.21;100.00
9249;BME280;4660;41.768;26.198;2023-06-10T08:12:56;100238.28;;;26.31;100.00
9249;BME280;4660;41.768;26.198;2023-06-10T08:15:21;100245.47;;;26.32;100.00
9249;BME280;4660;41.768;26.198;2023-06-10T08:17:47;100237.25;;;26.59;100.00
9249;BME280;4660;41.768;26.198;2023-06-10T08:20:12;100220.28;;;26.46;100.00
9249;BME280;4660;41.768;26.198;2023-06-10T08:22:38;100243.78;;;26.75;100.00
9249;BME280;4660;41.768;26.198;2023-06-10T08:25:04;100249.88;;;26.77;100.00
9249;BME280;4660;41.768;26.198;2023-06-10T08:27:30;100246.91;;;26.84;100.00
9249;BME280;4660;41.768;26.198;2023-06-10T08:29:55;100234.28;;;26.93;100.00
9249;BME280;4660;41.768;26.198;2023-06-10T08:32:21;100244.94;;;27.06;100.00
9249;BME280;4660;41.768;26.198;2023-06-10T08:34:46;100239.69;;;27.05;100.00
9249;BME280;4660;41.768;26.198;2023-06-10T08:37:12;100239.81;;;27.20;100.00
9249;BME280;4660;41.768;26.198;2023-06-10T08:39:37;100240.16;;;27.24;100.00
9249;BME280;4660;41.768;26.198;2023-06-10T08:42:28;100239.94;;;27.35;100.00
9249;BME280;4660;41.768;26.198;2023-06-10T08:44:55;100235.66;;;27.18;95.32
9249;BME280;4660;41.768;26.198;2023-06-10T08:47:23;100237.19;;;27.35;98.84
9249;BME280;4660;41.768;26.198;2023-06-10T08:49:48;100224.50;;;27.07;98.74
9249;BME280;4660;41.768;26.198;2023-06-10T08:52:16;100235.63;;;27.50;96.12
9249;BME280;4660;41.768;26.198;2023-06-10T08:54:56;100227.56;;;27.43;97.26
9249;BME280;4660;41.768;26.198;2023-06-10T08:57:22;100237.22;;;27.40;96.01
9249;BME280;4660;41.768;26.198;2023-06-10T08:59:48;100237.25;;;27.73;92.20
9249;BME280;4660;41.768;26.198;2023-06-10T09:02:15;100230.06;;;27.77;94.09
9249;BME280;4660;41.768;26.198;2023-06-10T09:04:44;100211.72;;;27.65;90.80
9249;BME280;4660;41.768;26.198;2023-06-10T09:07:11;100220.75;;;27.88;89.53
9249;BME280;4660;41.768;26.198;2023-06-10T09:09:37;100201.66;;;27.86;86.73
9249;BME280;4660;41.768;26.198;2023-06-10T09:12:04;100202.44;;;27.82;89.76
9249;BME280;4660;41.768;26.198;2023-06-10T09:14:29;100208.38;;;28.01;90.63
9249;BME280;4660;41.768;26.198;2023-06-10T09:16:55;100179.03;;;27.94;91.92
9249;BME280;4660;41.768;26.198;2023-06-10T09:19:25;100202.19;;;28.41;90.53
9249;BME280;4660;41.768;26.198;2023-06-10T09:21:52;100200.00;;;28.48;90.44
9249;BME280;4660;41.768;26.198;2023-06-10T09:24:18;100180.59;;;28.43;89.34
9249;BME280;4660;41.768;26.198;2023-06-10T09:26:43;100181.16;;;28.50;88.07
9249;BME280;4660;41.768;26.198;2023-06-10T09:29:09;100176.47;;;28.45;87.66
9249;BME280;4660;41.768;26.198;2023-06-10T09:31:39;100183.97;;;28.55;86.59
9249;BME280;4660;41.768;26.198;2023-06-10T09:34:15;100188.41;;;28.71;86.91
9249;BME280;4660;41.768;26.198;2023-06-10T09:36:42;100185.69;;;28.87;80.65
9249;BME280;4660;41.768;26.198;2023-06-10T09:39:18;100183.75;;;28.92;81.14
9249;BME280;4660;41.768;26.198;2023-06-10T09:41:45;100180.19;;;28.97;81.28
9249;BME280;4660;41.768;26.198;2023-06-10T09:44:16;100185.69;;;29.48;80.14
9249;BME280;4660;41.768;26.198;2023-06-10T09:46:41;100182.91;;;29.63;79.68
9249;BME280;4660;41.768;26.198;2023-06-10T09:49:07;100190.94;;;29.65;74.45
9249;BME280;4660;41.768;26.198;2023-06-10T09:51:33;100182.66;;;29.54;74.41
9249;BME280;4660;41.768;26.198;2023-06-10T09:54:02;100168.25;;;29.52;74.10
9249;BME280;4660;41.768;26.198;2023-06-10T09:56:35;100182.03;;;29.83;70.63
9249;BME280;4660;41.768;26.198;2023-06-10T09:59:02;100176.25;;;29.79;70.65
9249;BME280;4660;41.768;26.198;2023-06-10T10:01:30;100178.44;;;29.87;66.01
9249;BME280;4660;41.768;26.198;2023-06-10T10:03:56;100173.09;;;30.01;65.96
9249;BME280;4660;41.768;26.198;2023-06-10T10:06:21;100172.28;;;30.01;63.28
9249;BME280;4660;41.768;26.198;2023-06-10T10:08:49;100155.88;;;30.04;62.40
9249;BME280;4660;41.768;26.198;2023-06-10T10:11:21;100155.41;;;30.47;61.35
9249;BME280;4660;41.768;26.198;2023-06-10T10:13:51;100154.38;;;30.82;61.07
9249;BME280;4660;41.768;26.198;2023-06-10T10:16:20;100161.16;;;30.60;58.67
9249;BME280;4660;41.768;26.198;2023-06-10T10:19:08;100156.38;;;30.71;58.19
9249;BME280;4660;41.768;26.198;2023-06-10T10:21:39;100156.28;;;30.86;58.83
9249;BME280;4660;41.768;26.198;2023-06-10T10:24:22;100134.44;;;30.30;58.39
9249;BME280;4660;41.768;26.198;2023-06-10T10:26:50;100131.13;;;30.23;57.58
9249;BME280;4660;41.768;26.198;2023-06-10T10:29:33;100148.00;;;30.32;58.11
9249;BME280;4660;41.768;26.198;2023-06-10T10:32:02;100156.13;;;30.73;58.58
9249;BME280;4660;41.768;26.198;2023-06-10T10:34:35;100151.06;;;30.80;54.49
9249;BME280;4660;41.768;26.198;2023-06-10T10:37:02;100131.28;;;30.86;49.14
9249;BME280;4660;41.768;26.198;2023-06-10T10:39:28;100138.25;;;30.84;46.76
9249;BME280;4660;41.768;26.198;2023-06-10T10:41:55;100147.84;;;31.02;46.96
9249;BME280;4660;41.768;26.198;2023-06-10T10:44:22;100142.75;;;31.09;44.58
9249;BME280;4660;41.768;26.198;2023-06-10T10:46:50;100158.31;;;31.44;42.54
9249;BME280;4660;41.768;26.198;2023-06-10T10:49:17;100155.94;;;31.27;41.82
9249;BME280;4660;41.768;26.198;2023-06-10T10:52:00;100146.75;;;30.98;42.50
9249;BME280;4660;41.768;26.198;2023-06-10T10:54:30;100145.19;;;30.86;45.01
9249;BME280;4660;41.768;26.198;2023-06-10T10:59:45;100132.88;;;30.92;48.63
9249;BME280;4660;41.768;26.198;2023-06-10T11:02:15;100140.03;;;31.04;47.67
9249;BME280;4660;41.768;26.198;2023-06-10T11:04:47;100138.38;;;31.37;45.47
9249;BME280;4660;41.768;26.198;2023-06-10T11:07:12;100137.41;;;31.46;42.49
9249;BME280;4660;41.768;26.198;2023-06-10T11:10:01;100138.84;;;31.68;41.97
9249;BME280;4660;41.768;26.198;2023-06-10T11:15:29;100135.31;;;31.86;40.05
9249;BME280;4660;41.768;26.198;2023-06-10T11:18:15;100128.81;;;31.96;37.39
9249;BME280;4660;41.768;26.198;2023-06-10T11:25:51;100116.47;;;31.30;46.63
9249;BME280;4660;41.768;26.198;2023-06-10T11:28:20;100115.41;;;31.21;44.59
9249;BME280;4660;41.768;26.198;2023-06-10T11:30:46;100110.31;;;31.33;43.81
9249;BME280;4660;41.768;26.198;2023-06-10T11:33:16;100106.19;;;31.55;43.16
9249;BME280;4660;41.768;26.198;2023-06-10T11:35:43;100078.94;;;31.75;41.94
9249;BME280;4660;41.768;26.198;2023-06-10T11:38:09;100108.97;;;32.21;41.17
9249;BME280;4660;41.768;26.198;2023-06-10T11:40:36;100112.00;;;32.25;40.85
9249;BME280;4660;41.768;26.198;2023-06-10T11:43:04;100114.44;;;32.08;41.98
9249;BME280;4660;41.768;26.198;2023-06-10T11:45:30;100112.94;;;31.72;42.58
9249;BME280;4660;41.768;26.198;2023-06-10T11:47:57;100111.66;;;31.36;47.63
9249;BME280;4660;41.768;26.198;2023-06-10T11:50:32;100108.75;;;31.22;46.64
9249;BME280;4660;41.768;26.198;2023-06-10T11:52:59;100113.16;;;31.52;45.86
9249;BME280;4660;41.768;26.198;2023-06-10T11:55:26;100103.53;;;31.44;44.99
9249;BME280;4660;41.768;26.198;2023-06-10T11:57:51;100101.97;;;31.57;44.93
9249;BME280;4660;41.768;26.198;2023-06-10T12:00:23;100093.66;;;31.81;41.99
9249;BME280;4660;41.768;26.198;2023-06-10T12:02:59;100091.06;;;32.09;42.02
9249;BME280;4660;41.768;26.198;2023-06-10T12:05:24;100079.00;;;32.37;39.33
9249;BME280;4660;41.768;26.198;2023-06-10T12:08:08;100096.69;;;32.79;40.25
9249;BME280;4660;41.768;26.198;2023-06-10T12:10:40;100086.72;;;32.59;41.68
9249;BME280;4660;41.768;26.198;2023-06-10T12:13:06;100095.81;;;32.27;42.73
9249;BME280;4660;41.768;26.198;2023-06-10T12:15:31;100086.75;;;31.97;43.32
9249;BME280;4660;41.768;26.198;2023-06-10T12:17:57;100088.78;;;31.68;45.20
9249;BME280;4660;41.768;26.198;2023-06-10T12:20:30;100094.28;;;31.73;44.75
9249;BME280;4660;41.768;26.198;2023-06-10T12:23:07;100088.19;;;31.71;46.44
9249;BME280;4660;41.768;26.198;2023-06-10T12:25:33;100076.97;;;31.81;44.63
9249;BME280;4660;41.768;26.198;2023-06-10T12:27:59;100078.56;;;32.06;43.12
9249;BME280;4660;41.768;26.198;2023-06-10T12:30:27;100080.31;;;32.21;43.85
9249;BME280;4660;41.768;26.198;2023-06-10T12:32:53;100076.38;;;32.22;44.69
9249;BME280;4660;41.768;26.198;2023-06-10T12:35:20;100062.19;;;32.23;44.41
9249;BME280;4660;41.768;26.198;2023-06-10T12:37:59;100075.34;;;32.18;44.02
9249;BME280;4660;41.768;26.198;2023-06-10T12:40:38;100065.88;;;32.19;42.54
9249;BME280;4660;41.768;26.198;2023-06-10T12:43:06;100076.91;;;32.62;42.62
9249;BME280;4660;41.768;26.198;2023-06-10T12:48:17;100077.34;;;31.93;47.17
9249;BME280;4660;41.768;26.198;2023-06-10T12:50:43;100076.81;;;31.91;47.34
9249;BME280;4660;41.768;26.198;2023-06-10T12:53:10;100070.09;;;32.16;47.15
9249;BME280;4660;41.768;26.198;2023-06-10T12:55:37;100077.97;;;32.28;45.38
9249;BME280;4660;41.768;26.198;2023-06-10T12:58:03;100072.63;;;32.13;45.65
9249;BME280;4660;41.768;26.198;2023-06-10T13:00:29;100064.72;;;31.82;45.46
9249;BME280;4660;41.768;26.198;2023-06-10T13:02:59;100068.72;;;31.71;45.08
9249;BME280;4660;41.768;26.198;2023-06-10T13:05:26;100059.09;;;31.87;44.18
9249;BME280;4660;41.768;26.198;2023-06-10T13:07:52;100052.47;;;32.02;45.14
9249;BME280;4660;41.768;26.198;2023-06-10T13:10:17;100050.44;;;32.08;44.29
9249;BME280;4660;41.768;26.198;2023-06-10T13:12:44;100043.38;;;32.34;45.60